sensor_id;sensor_type;location;lat;lon;timestamp;temperature;humidity
13322;DHT22;6730;46.248;6.930;2024-01-30T00:01:13;6.80;99.90
13322;DHT22;6730;46.248;6.930;2024-01-30T00:03:39;6.70;99.90
13322;DHT22;6730;46.248;6.930;2024-01-30T00:06:05;6.70;99.90
13322;DHT22;6730;46.248;6.930;2024-01-30T00:08:30;6.90;99.90
13322;DHT22;6730;46.248;6.930;2024-01-30T00:10:56;7.00;99.90
13322;DHT22;6730;46.248;6.930;2024-01-30T00:13:22;7.00;99.90
13322;DHT22;6730;46.248;6.930;2024-01-30T00:15:48;7.40;99.90
13322;DHT22;6730;46.248;6.930;2024-01-30T00:18:14;7.40;99.90
13322;DHT22;6730;46.248;6.930;2024-01-30T00:20:40;7.10;99.90
13322;DHT22;6730;46.248;6.930;2024-01-30T00:23:05;6.90;99.90
13322;DHT22;6730;46.248;6.930;2024-01-30T00:25:33;6.70;99.90
13322;DHT22;6730;46.248;6.930;2024-01-30T00:27:59;6.70;99.90
13322;DHT22;6730;46.248;6.930;2024-01-30T00:30:25;6.70;99.90
13322;DHT22;6730;46.248;6.930;2024-01-30T00:32:50;6.70;99.90
13322;DHT22;6730;46.248;6.930;2024-01-30T00:35:16;7.00;99.90
13322;DHT22;6730;46.248;6.930;2024-01-30T00:37:41;6.90;99.90
13322;DHT22;6730;46.248;6.930;2024-01-30T00:40:07;6.90;99.90
13322;DHT22;6730;46.248;6.930;2024-01-30T00:42:35;6.70;99.90
13322;DHT22;6730;46.248;6.930;2024-01-30T00:45:01;6.60;99.90
13322;DHT22;6730;46.248;6.930;2024-01-30T00:47:27;6.80;99.90
13322;DHT22;6730;46.248;6.930;2024-01-30T00:49:54;6.90;99.90
13322;DHT22;6730;46.248;6.930;2024-01-30T00:52:20;7.20;99.90
13322;DHT22;6730;46.248;6.930;2024-01-30T00:54:45;7.40;99.90
13322;DHT22;6730;46.248;6.930;2024-01-30T00:57:11;7.50;99.90
13322;DHT22;6730;46.248;6.930;2024-01-30T00:59:37;7.50;99.90
13322;DHT22;6730;46.248;6.930;2024-01-30T01:02:03;7.20;99.90
13322;DHT22;6730;46.248;6.930;2024-01-30T01:04:29;7.20;99.90
13322;DHT22;6730;46.248;6.930;2024-01-30T01:06:55;7.10;99.90
13322;DHT22;6730;46.248;6.930;2024-01-30T01:09:20;6.80;99.90
13322;DHT22;6730;46.248;6.930;2024-01-30T01:11:46;6.60;99.90
13322;DHT22;6730;46.248;6.930;2024-01-30T01:14:12;6.40;99.90
13322;DHT22;6730;46.248;6.930;2024-01-30T01:16:37;6.20;99.90
13322;DHT22;6730;46.248;6.930;2024-01-30T01:19:03;6.30;99.90
13322;DHT22;6730;46.248;6.930;2024-01-30T01:21:29;6.40;99.90
13322;DHT22;6730;46.248;6.930;2024-01-30T01:23:54;6.30;99.90
13322;DHT22;6730;46.248;6.930;2024-01-30T01:26:20;6.30;99.90
13322;DHT22;6730;46.248;6.930;2024-01-30T01:28:46;6.30;99.90
13322;DHT22;6730;46.248;6.930;2024-01-30T01:31:12;6.30;99.90
13322;DHT22;6730;46.248;6.930;2024-01-30T01:33:38;6.20;99.90
13322;DHT22;6730;46.248;6.930;2024-01-30T01:36:03;6.20;99.90
13322;DHT22;6730;46.248;6.930;2024-01-30T01:38:29;6.20;99.90
13322;DHT22;6730;46.248;6.930;2024-01-30T01:40:55;6.20;99.90
13322;DHT22;6730;46.248;6.930;2024-01-30T01:43:21;6.20;99.90
13322;DHT22;6730;46.248;6.930;2024-01-30T01:45:46;6.40;99.90
13322;DHT22;6730;46.248;6.930;2024-01-30T01:48:12;6.40;99.90
13322;DHT22;6730;46.248;6.930;2024-01-30T01:50:39;6.30;99.90
13322;DHT22;6730;46.248;6.930;2024-01-30T01:53:07;6.20;99.90
13322;DHT22;6730;46.248;6.930;2024-01-30T01:55:34;6.40;99.90
13322;DHT22;6730;46.248;6.930;2024-01-30T01:58:00;6.70;99.90
13322;DHT22;6730;46.248;6.930;2024-01-30T02:00:27;6.80;99.90
13322;DHT22;6730;46.248;6.930;2024-01-30T02:02:54;6.90;99.90
13322;DHT22;6730;46.248;6.930;2024-01-30T02:05:20;7.00;99.90
13322;DHT22;6730;46.248;6.930;2024-01-30T02:07:46;7.20;99.90
13322;DHT22;6730;46.248;6.930;2024-01-30T02:10:12;7.30;99.90
13322;DHT22;6730;46.248;6.930;2024-01-30T02:12:38;7.30;99.90
13322;DHT22;6730;46.248;6.930;2024-01-30T02:15:04;7.00;99.90
13322;DHT22;6730;46.248;6.930;2024-01-30T02:17:31;6.60;99.90
13322;DHT22;6730;46.248;6.930;2024-01-30T02:19:56;6.20;99.90
13322;DHT22;6730;46.248;6.930;2024-01-30T02:22:23;6.10;99.90
13322;DHT22;6730;46.248;6.930;2024-01-30T02:24:49;6.20;99.90
13322;DHT22;6730;46.248;6.930;2024-01-30T02:27:15;6.20;99.90
13322;DHT22;6730;46.248;6.930;2024-01-30T02:29:41;6.10;99.90
13322;DHT22;6730;46.248;6.930;2024-01-30T02:32:07;6.00;99.90
13322;DHT22;6730;46.248;6.930;2024-01-30T02:34:33;5.90;99.90
13322;DHT22;6730;46.248;6.930;2024-01-30T02:36:59;6.00;99.90
13322;DHT22;6730;46.248;6.930;2024-01-30T02:39:25;6.20;99.90
13322;DHT22;6730;46.248;6.930;2024-01-30T02:41:50;6.20;99.90
13322;DHT22;6730;46.248;6.930;2024-01-30T02:44:16;6.20;99.90
13322;DHT22;6730;46.248;6.930;2024-01-30T02:46:42;6.30;99.90
13322;DHT22;6730;46.248;6.930;2024-01-30T02:49:07;6.40;99.90
13322;DHT22;6730;46.248;6.930;2024-01-30T02:51:33;6.50;99.90
13322;DHT22;6730;46.248;6.930;2024-01-30T02:53:59;6.50;99.90
13322;DHT22;6730;46.248;6.930;2024-01-30T02:56:24;6.40;99.90
13322;DHT22;6730;46.248;6.930;2024-01-30T02:58:50;6.30;99.90
13322;DHT22;6730;46.248;6.930;2024-01-30T03:01:16;6.20;99.90
13322;DHT22;6730;46.248;6.930;2024-01-30T03:03:41;6.10;99.90
13322;DHT22;6730;46.248;6.930;2024-01-30T03:06:08;6.10;99.90
13322;DHT22;6730;46.248;6.930;2024-01-30T03:08:35;6.00;99.90
13322;DHT22;6730;46.248;6.930;2024-01-30T03:11:00;5.90;99.90
13322;DHT22;6730;46.248;6.930;2024-01-30T03:13:27;5.80;99.90
13322;DHT22;6730;46.248;6.930;2024-01-30T03:15:52;5.70;99.90
13322;DHT22;6730;46.248;6.930;2024-01-30T03:18:18;5.70;99.90
13322;DHT22;6730;46.248;6.930;2024-01-30T03:20:43;5.60;99.90
13322;DHT22;6730;46.248;6.930;2024-01-30T03:23:09;5.60;99.90
13322;DHT22;6730;46.248;6.930;2024-01-30T03:25:35;5.60;99.90
13322;DHT22;6730;46.248;6.930;2024-01-30T03:28:00;5.60;99.90
13322;DHT22;6730;46.248;6.930;2024-01-30T03:30:26;5.70;99.90
13322;DHT22;6730;46.248;6.930;2024-01-30T03:32:52;5.80;99.90
13322;DHT22;6730;46.248;6.930;2024-01-30T03:35:19;5.70;99.90
13322;DHT22;6730;46.248;6.930;2024-01-30T03:37:45;5.70;99.90
13322;DHT22;6730;46.248;6.930;2024-01-30T03:40:11;5.80;99.90
13322;DHT22;6730;46.248;6.930;2024-01-30T03:42:36;5.90;99.90
13322;DHT22;6730;46.248;6.930;2024-01-30T03:45:02;6.00;99.90
13322;DHT22;6730;46.248;6.930;2024-01-30T03:47:28;6.00;99.90
13322;DHT22;6730;46.248;6.930;2024-01-30T03:49:54;5.80;99.90
13322;DHT22;6730;46.248;6.930;2024-01-30T03:52:19;5.80;99.90
13322;DHT22;6730;46.248;6.930;2024-01-30T03:54:45;5.90;99.90
13322;DHT22;6730;46.248;6.930;2024-01-30T03:57:11;6.00;99.90
13322;DHT22;6730;46.248;6.930;2024-01-30T03:59:37;6.10;99.90
13322;DHT22;6730;46.248;6.930;2024-01-30T04:02:03;6.10;99.90
13322;DHT22;6730;46.248;6.930;2024-01-30T04:04:29;6.00;99.90
13322;DHT22;6730;46.248;6.930;2024-01-30T04:06:55;5.80;99.90
13322;DHT22;6730;46.248;6.930;2024-01-30T04:09:21;5.80;99.90
13322;DHT22;6730;46.248;6.930;2024-01-30T04:11:46;6.00;99.90
13322;DHT22;6730;46.248;6.930;2024-01-30T04:14:12;6.20;99.90
13322;DHT22;6730;46.248;6.930;2024-01-30T04:16:38;6.30;99.90
13322;DHT22;6730;46.248;6.930;2024-01-30T04:19:03;6.10;99.90
13322;DHT22;6730;46.248;6.930;2024-01-30T04:21:29;6.00;99.90
13322;DHT22;6730;46.248;6.930;2024-01-30T04:23:54;6.10;99.90
13322;DHT22;6730;46.248;6.930;2024-01-30T04:26:20;6.10;99.90
13322;DHT22;6730;46.248;6.930;2024-01-30T04:28:46;6.00;99.90
13322;DHT22;6730;46.248;6.930;2024-01-30T04:31:12;6.10;99.90
13322;DHT22;6730;46.248;6.930;2024-01-30T04:33:38;6.10;99.90
13322;DHT22;6730;46.248;6.930;2024-01-30T04:36:04;5.90;99.90
13322;DHT22;6730;46.248;6.930;2024-01-30T04:38:31;5.90;99.90
13322;DHT22;6730;46.248;6.930;2024-01-30T04:40:56;5.90;99.90
13322;DHT22;6730;46.248;6.930;2024-01-30T04:43:23;5.90;99.90
13322;DHT22;6730;46.248;6.930;2024-01-30T04:45:49;6.00;99.90
13322;DHT22;6730;46.248;6.930;2024-01-30T04:48:15;6.00;99.90
13322;DHT22;6730;46.248;6.930;2024-01-30T04:50:40;6.00;99.90
13322;DHT22;6730;46.248;6.930;2024-01-30T04:53:06;6.10;99.90
13322;DHT22;6730;46.248;6.930;2024-01-30T04:55:33;6.30;99.90
13322;DHT22;6730;46.248;6.930;2024-01-30T04:57:58;6.50;99.90
13322;DHT22;6730;46.248;6.930;2024-01-30T05:00:24;6.20;99.90
13322;DHT22;6730;46.248;6.930;2024-01-30T05:02:50;5.90;99.90
13322;DHT22;6730;46.248;6.930;2024-01-30T05:05:15;5.80;99.90
13322;DHT22;6730;46.248;6.930;2024-01-30T05:07:42;5.60;99.90
13322;DHT22;6730;46.248;6.930;2024-01-30T05:10:08;5.80;99.90
13322;DHT22;6730;46.248;6.930;2024-01-30T05:12:34;5.70;99.90
13322;DHT22;6730;46.248;6.930;2024-01-30T05:14:59;5.90;99.90
13322;DHT22;6730;46.248;6.930;2024-01-30T05:17:25;6.30;99.90
13322;DHT22;6730;46.248;6.930;2024-01-30T05:19:50;6.50;99.90
13322;DHT22;6730;46.248;6.930;2024-01-30T05:22:16;6.70;99.90
13322;DHT22;6730;46.248;6.930;2024-01-30T05:24:44;6.80;99.90
13322;DHT22;6730;46.248;6.930;2024-01-30T05:27:10;6.70;99.90
13322;DHT22;6730;46.248;6.930;2024-01-30T05:29:36;6.70;99.90
13322;DHT22;6730;46.248;6.930;2024-01-30T05:32:02;6.80;99.90
13322;DHT22;6730;46.248;6.930;2024-01-30T05:34:28;6.70;99.90
13322;DHT22;6730;46.248;6.930;2024-01-30T05:36:53;6.30;99.90
13322;DHT22;6730;46.248;6.930;2024-01-30T05:39:19;6.00;99.90
13322;DHT22;6730;46.248;6.930;2024-01-30T05:41:45;6.20;99.90
13322;DHT22;6730;46.248;6.930;2024-01-30T05:44:11;6.50;99.90
13322;DHT22;6730;46.248;6.930;2024-01-30T05:46:36;6.40;99.90
13322;DHT22;6730;46.248;6.930;2024-01-30T05:49:02;6.60;99.90
13322;DHT22;6730;46.248;6.930;2024-01-30T05:51:28;6.70;99.90
13322;DHT22;6730;46.248;6.930;2024-01-30T05:53:53;6.70;99.90
13322;DHT22;6730;46.248;6.930;2024-01-30T05:56:19;6.80;99.90
13322;DHT22;6730;46.248;6.930;2024-01-30T05:58:45;6.60;99.90
13322;DHT22;6730;46.248;6.930;2024-01-30T06:01:11;6.30;99.90
13322;DHT22;6730;46.248;6.930;2024-01-30T06:03:36;6.10;99.90
13322;DHT22;6730;46.248;6.930;2024-01-30T06:06:02;6.10;99.90
13322;DHT22;6730;46.248;6.930;2024-01-30T06:08:28;5.90;99.90
13322;DHT22;6730;46.248;6.930;2024-01-30T06:10:54;5.70;99.90
13322;DHT22;6730;46.248;6.930;2024-01-30T06:13:19;5.70;99.90
13322;DHT22;6730;46.248;6.930;2024-01-30T06:15:45;5.80;99.90
13322;DHT22;6730;46.248;6.930;2024-01-30T06:18:11;5.70;99.90
13322;DHT22;6730;46.248;6.930;2024-01-30T06:20:36;5.90;99.90
13322;DHT22;6730;46.248;6.930;2024-01-30T06:23:02;5.90;99.90
13322;DHT22;6730;46.248;6.930;2024-01-30T06:25:28;5.80;99.90
13322;DHT22;6730;46.248;6.930;2024-01-30T06:27:54;5.60;99.90
13322;DHT22;6730;46.248;6.930;2024-01-30T06:30:19;5.40;99.90
13322;DHT22;6730;46.248;6.930;2024-01-30T06:32:45;5.40;99.90
13322;DHT22;6730;46.248;6.930;2024-01-30T06:35:11;5.30;99.90
13322;DHT22;6730;46.248;6.930;2024-01-30T06:37:37;5.30;99.90
13322;DHT22;6730;46.248;6.930;2024-01-30T06:40:03;5.30;99.90
13322;DHT22;6730;46.248;6.930;2024-01-30T06:42:30;5.30;99.90
13322;DHT22;6730;46.248;6.930;2024-01-30T06:44:56;5.20;99.90
13322;DHT22;6730;46.248;6.930;2024-01-30T06:47:21;5.20;99.90
13322;DHT22;6730;46.248;6.930;2024-01-30T06:49:47;5.30;99.90
13322;DHT22;6730;46.248;6.930;2024-01-30T06:52:13;5.30;99.90
13322;DHT22;6730;46.248;6.930;2024-01-30T06:54:39;5.50;99.90
13322;DHT22;6730;46.248;6.930;2024-01-30T06:57:05;5.60;99.90
13322;DHT22;6730;46.248;6.930;2024-01-30T06:59:34;5.60;99.90
13322;DHT22;6730;46.248;6.930;2024-01-30T07:02:00;5.80;99.90
13322;DHT22;6730;46.248;6.930;2024-01-30T07:04:26;6.10;99.90
13322;DHT22;6730;46.248;6.930;2024-01-30T07:06:51;6.10;99.90
13322;DHT22;6730;46.248;6.930;2024-01-30T07:09:18;6.40;99.90
13322;DHT22;6730;46.248;6.930;2024-01-30T07:11:44;6.20;99.90
13322;DHT22;6730;46.248;6.930;2024-01-30T07:14:10;6.10;99.90
13322;DHT22;6730;46.248;6.930;2024-01-30T07:16:36;5.60;99.90
13322;DHT22;6730;46.248;6.930;2024-01-30T07:19:01;5.80;99.90
13322;DHT22;6730;46.248;6.930;2024-01-30T07:21:27;6.00;99.90
13322;DHT22;6730;46.248;6.930;2024-01-30T07:23:57;6.00;99.90
13322;DHT22;6730;46.248;6.930;2024-01-30T07:26:22;5.70;99.90
13322;DHT22;6730;46.248;6.930;2024-01-30T07:28:48;5.60;99.90
13322;DHT22;6730;46.248;6.930;2024-01-30T07:31:15;5.30;99.90
13322;DHT22;6730;46.248;6.930;2024-01-30T07:33:41;5.40;99.90
13322;DHT22;6730;46.248;6.930;2024-01-30T07:36:06;5.80;99.90
13322;DHT22;6730;46.248;6.930;2024-01-30T07:38:32;6.20;99.90
13322;DHT22;6730;46.248;6.930;2024-01-30T07:40:58;6.20;99.90
13322;DHT22;6730;46.248;6.930;2024-01-30T07:43:24;6.10;99.90
13322;DHT22;6730;46.248;6.930;2024-01-30T07:45:50;5.70;99.90
13322;DHT22;6730;46.248;6.930;2024-01-30T07:48:15;5.50;99.90
13322;DHT22;6730;46.248;6.930;2024-01-30T07:50:41;5.40;99.90
13322;DHT22;6730;46.248;6.930;2024-01-30T07:53:07;5.70;99.90
13322;DHT22;6730;46.248;6.930;2024-01-30T07:55:32;6.10;99.90
13322;DHT22;6730;46.248;6.930;2024-01-30T07:57:58;6.50;99.90
13322;DHT22;6730;46.248;6.930;2024-01-30T08:00:27;7.00;99.90
13322;DHT22;6730;46.248;6.930;2024-01-30T08:02:54;7.70;99.90
13322;DHT22;6730;46.248;6.930;2024-01-30T08:05:21;8.40;99.90
13322;DHT22;6730;46.248;6.930;2024-01-30T08:07:50;8.50;99.90
13322;DHT22;6730;46.248;6.930;2024-01-30T08:10:16;9.10;99.90
13322;DHT22;6730;46.248;6.930;2024-01-30T08:12:44;9.70;99.90
13322;DHT22;6730;46.248;6.930;2024-01-30T08:15:11;10.40;99.90
13322;DHT22;6730;46.248;6.930;2024-01-30T08:17:37;11.00;99.90
13322;DHT22;6730;46.248;6.930;2024-01-30T08:20:03;11.70;99.90
13322;DHT22;6730;46.248;6.930;2024-01-30T08:22:30;12.60;99.90
13322;DHT22;6730;46.248;6.930;2024-01-30T08:24:56;13.20;98.70
13322;DHT22;6730;46.248;6.930;2024-01-30T08:27:21;13.50;98.60
13322;DHT22;6730;46.248;6.930;2024-01-30T08:29:47;13.70;96.80
13322;DHT22;6730;46.248;6.930;2024-01-30T08:32:12;12.60;97.40
13322;DHT22;6730;46.248;6.930;2024-01-30T08:34:38;11.20;98.40
13322;DHT22;6730;46.248;6.930;2024-01-30T08:37:04;10.60;99.30
13322;DHT22;6730;46.248;6.930;2024-01-30T08:39:30;10.40;99.90
13322;DHT22;6730;46.248;6.930;2024-01-30T08:41:56;10.90;99.90
13322;DHT22;6730;46.248;6.930;2024-01-30T08:44:21;11.10;99.90
13322;DHT22;6730;46.248;6.930;2024-01-30T08:46:47;11.20;98.90
13322;DHT22;6730;46.248;6.930;2024-01-30T08:49:14;11.80;99.60
13322;DHT22;6730;46.248;6.930;2024-01-30T08:51:41;12.20;99.00
13322;DHT22;6730;46.248;6.930;2024-01-30T08:54:07;12.40;99.50
13322;DHT22;6730;46.248;6.930;2024-01-30T08:56:32;12.70;99.40
13322;DHT22;6730;46.248;6.930;2024-01-30T08:58:58;12.30;99.20
13322;DHT22;6730;46.248;6.930;2024-01-30T09:01:25;12.40;99.30
13322;DHT22;6730;46.248;6.930;2024-01-30T09:03:50;12.60;98.90
13322;DHT22;6730;46.248;6.930;2024-01-30T09:06:16;12.70;99.50
13322;DHT22;6730;46.248;6.930;2024-01-30T09:08:42;13.30;99.10
13322;DHT22;6730;46.248;6.930;2024-01-30T09:11:12;13.40;98.70
13322;DHT22;6730;46.248;6.930;2024-01-30T09:13:38;13.30;99.60
13322;DHT22;6730;46.248;6.930;2024-01-30T09:16:04;12.70;98.90
13322;DHT22;6730;46.248;6.930;2024-01-30T09:18:30;12.50;99.70
13322;DHT22;6730;46.248;6.930;2024-01-30T09:20:56;12.70;99.40
13322;DHT22;6730;46.248;6.930;2024-01-30T09:23:22;12.80;98.70
13322;DHT22;6730;46.248;6.930;2024-01-30T09:25:48;12.20;99.20
13322;DHT22;6730;46.248;6.930;2024-01-30T09:28:13;12.10;99.40
13322;DHT22;6730;46.248;6.930;2024-01-30T09:30:39;11.20;99.50
13322;DHT22;6730;46.248;6.930;2024-01-30T09:33:06;9.90;99.90
13322;DHT22;6730;46.248;6.930;2024-01-30T09:35:31;9.40;99.90
13322;DHT22;6730;46.248;6.930;2024-01-30T09:37:57;8.90;99.90
13322;DHT22;6730;46.248;6.930;2024-01-30T09:40:24;9.20;99.90
13322;DHT22;6730;46.248;6.930;2024-01-30T09:42:50;9.10;99.90
13322;DHT22;6730;46.248;6.930;2024-01-30T09:45:23;9.60;99.90
13322;DHT22;6730;46.248;6.930;2024-01-30T09:47:49;10.80;99.90
13322;DHT22;6730;46.248;6.930;2024-01-30T09:50:15;11.20;99.90
13322;DHT22;6730;46.248;6.930;2024-01-30T09:52:43;11.10;99.90
13322;DHT22;6730;46.248;6.930;2024-01-30T09:55:09;11.40;99.90
13322;DHT22;6730;46.248;6.930;2024-01-30T09:57:35;12.00;99.90
13322;DHT22;6730;46.248;6.930;2024-01-30T10:00:02;11.60;99.90
13322;DHT22;6730;46.248;6.930;2024-01-30T10:02:28;11.60;99.90
13322;DHT22;6730;46.248;6.930;2024-01-30T10:04:54;11.80;99.90
13322;DHT22;6730;46.248;6.930;2024-01-30T10:07:19;12.40;99.90
13322;DHT22;6730;46.248;6.930;2024-01-30T10:09:46;12.30;99.60
13322;DHT22;6730;46.248;6.930;2024-01-30T10:12:12;12.10;99.10
13322;DHT22;6730;46.248;6.930;2024-01-30T10:14:42;11.00;99.90
13322;DHT22;6730;46.248;6.930;2024-01-30T10:17:09;10.60;99.90
13322;DHT22;6730;46.248;6.930;2024-01-30T10:19:36;10.50;99.90
13322;DHT22;6730;46.248;6.930;2024-01-30T10:22:02;10.40;99.90
13322;DHT22;6730;46.248;6.930;2024-01-30T10:24:28;10.10;99.90
13322;DHT22;6730;46.248;6.930;2024-01-30T10:26:55;9.30;99.90
13322;DHT22;6730;46.248;6.930;2024-01-30T10:29:21;9.10;99.90
13322;DHT22;6730;46.248;6.930;2024-01-30T10:31:58;8.80;99.90
13322;DHT22;6730;46.248;6.930;2024-01-30T10:34:24;8.90;99.90
13322;DHT22;6730;46.248;6.930;2024-01-30T10:36:50;8.70;99.90
13322;DHT22;6730;46.248;6.930;2024-01-30T10:39:21;8.60;99.90
13322;DHT22;6730;46.248;6.930;2024-01-30T10:41:48;8.70;99.90
13322;DHT22;6730;46.248;6.930;2024-01-30T10:44:19;8.90;99.90
13322;DHT22;6730;46.248;6.930;2024-01-30T10:46:53;8.90;99.90
13322;DHT22;6730;46.248;6.930;2024-01-30T10:49:21;8.90;99.90
13322;DHT22;6730;46.248;6.930;2024-01-30T10:51:48;9.00;99.90
13322;DHT22;6730;46.248;6.930;2024-01-30T10:54:15;9.30;99.90
13322;DHT22;6730;46.248;6.930;2024-01-30T10:56:41;9.70;99.90
13322;DHT22;6730;46.248;6.930;2024-01-30T10:59:09;10.00;99.90
13322;DHT22;6730;46.248;6.930;2024-01-30T11:01:35;10.80;99.90
13322;DHT22;6730;46.248;6.930;2024-01-30T11:04:01;11.20;99.90
13322;DHT22;6730;46.248;6.930;2024-01-30T11:06:27;11.60;99.90
13322;DHT22;6730;46.248;6.930;2024-01-30T11:09:06;11.10;99.90
13322;DHT22;6730;46.248;6.930;2024-01-30T11:11:52;10.50;99.90
13322;DHT22;6730;46.248;6.930;2024-01-30T11:14:23;10.60;99.90
13322;DHT22;6730;46.248;6.930;2024-01-30T11:16:50;11.10;99.90
13322;DHT22;6730;46.248;6.930;2024-01-30T11:19:22;11.50;99.90
13322;DHT22;6730;46.248;6.930;2024-01-30T11:21:50;11.40;99.90
13322;DHT22;6730;46.248;6.930;2024-01-30T11:24:20;11.90;99.90
13322;DHT22;6730;46.248;6.930;2024-01-30T11:26:48;12.10;99.90
13322;DHT22;6730;46.248;6.930;2024-01-30T11:29:15;11.70;99.90
13322;DHT22;6730;46.248;6.930;2024-01-30T11:31:51;11.70;99.90
13322;DHT22;6730;46.248;6.930;2024-01-30T11:34:18;11.70;99.90
13322;DHT22;6730;46.248;6.930;2024-01-30T11:36:45;11.10;99.80
13322;DHT22;6730;46.248;6.930;2024-01-30T11:39:17;10.70;99.90
13322;DHT22;6730;46.248;6.930;2024-01-30T11:41:44;10.30;99.90
13322;DHT22;6730;46.248;6.930;2024-01-30T11:44:10;10.40;99.90
13322;DHT22;6730;46.248;6.930;2024-01-30T11:46:36;10.60;99.90
13322;DHT22;6730;46.248;6.930;2024-01-30T11:49:02;10.20;99.90
13322;DHT22;6730;46.248;6.930;2024-01-30T11:51:28;10.10;99.90
13322;DHT22;6730;46.248;6.930;2024-01-30T11:53:57;10.70;99.90
13322;DHT22;6730;46.248;6.930;2024-01-30T11:56:24;11.40;99.90
13322;DHT22;6730;46.248;6.930;2024-01-30T11:58:50;12.10;99.90
13322;DHT22;6730;46.248;6.930;2024-01-30T12:01:17;12.10;99.90
13322;DHT22;6730;46.248;6.930;2024-01-30T12:03:49;12.30;98.90
13322;DHT22;6730;46.248;6.930;2024-01-30T12:06:15;12.00;99.80
13322;DHT22;6730;46.248;6.930;2024-01-30T12:08:41;12.40;99.60
13322;DHT22;6730;46.248;6.930;2024-01-30T12:11:07;12.00;99.70
13322;DHT22;6730;46.248;6.930;2024-01-30T12:13:33;11.80;99.40
13322;DHT22;6730;46.248;6.930;2024-01-30T12:15:59;11.40;99.80
13322;DHT22;6730;46.248;6.930;2024-01-30T12:18:26;11.20;99.50
13322;DHT22;6730;46.248;6.930;2024-01-30T12:21:00;10.70;99.90
13322;DHT22;6730;46.248;6.930;2024-01-30T12:23:29;10.40;99.90
13322;DHT22;6730;46.248;6.930;2024-01-30T12:25:55;10.50;99.90
13322;DHT22;6730;46.248;6.930;2024-01-30T12:28:21;11.00;99.90
13322;DHT22;6730;46.248;6.930;2024-01-30T12:30:47;11.20;99.90
13322;DHT22;6730;46.248;6.930;2024-01-30T12:33:17;11.00;99.90
13322;DHT22;6730;46.248;6.930;2024-01-30T12:35:47;10.90;99.90
13322;DHT22;6730;46.248;6.930;2024-01-30T12:38:14;11.00;99.90
13322;DHT22;6730;46.248;6.930;2024-01-30T12:40:40;10.80;99.90
13322;DHT22;6730;46.248;6.930;2024-01-30T12:43:05;10.90;99.90
13322;DHT22;6730;46.248;6.930;2024-01-30T12:45:31;11.00;99.90
13322;DHT22;6730;46.248;6.930;2024-01-30T12:47:57;11.30;99.90
13322;DHT22;6730;46.248;6.930;2024-01-30T12:50:23;11.40;99.90
13322;DHT22;6730;46.248;6.930;2024-01-30T12:52:49;11.20;99.90
13322;DHT22;6730;46.248;6.930;2024-01-30T12:55:15;10.90;99.90
13322;DHT22;6730;46.248;6.930;2024-01-30T12:57:40;10.60;99.90
13322;DHT22;6730;46.248;6.930;2024-01-30T13:00:07;10.20;99.90
13322;DHT22;6730;46.248;6.930;2024-01-30T13:02:36;9.80;99.90
13322;DHT22;6730;46.248;6.930;2024-01-30T13:05:03;9.60;99.90
13322;DHT22;6730;46.248;6.930;2024-01-30T13:07:30;9.70;99.90
13322;DHT22;6730;46.248;6.930;2024-01-30T13:09:56;9.80;99.90
13322;DHT22;6730;46.248;6.930;2024-01-30T13:12:28;9.80;99.90
13322;DHT22;6730;46.248;6.930;2024-01-30T13:14:54;9.80;99.90
13322;DHT22;6730;46.248;6.930;2024-01-30T13:17:20;9.90;99.90
13322;DHT22;6730;46.248;6.930;2024-01-30T13:19:45;10.00;99.90
13322;DHT22;6730;46.248;6.930;2024-01-30T13:22:11;9.60;99.90
13322;DHT22;6730;46.248;6.930;2024-01-30T13:24:37;9.70;99.90
13322;DHT22;6730;46.248;6.930;2024-01-30T13:27:03;9.70;99.90
13322;DHT22;6730;46.248;6.930;2024-01-30T13:29:31;9.60;99.90
13322;DHT22;6730;46.248;6.930;2024-01-30T13:31:56;9.30;99.90
13322;DHT22;6730;46.248;6.930;2024-01-30T13:34:22;9.50;99.90
13322;DHT22;6730;46.248;6.930;2024-01-30T13:36:48;9.70;99.90
13322;DHT22;6730;46.248;6.930;2024-01-30T13:39:14;9.80;99.90
13322;DHT22;6730;46.248;6.930;2024-01-30T13:41:42;9.80;99.90
13322;DHT22;6730;46.248;6.930;2024-01-30T13:44:08;9.60;99.90
13322;DHT22;6730;46.248;6.930;2024-01-30T13:46:35;9.50;99.90
13322;DHT22;6730;46.248;6.930;2024-01-30T13:49:01;9.40;99.90
13322;DHT22;6730;46.248;6.930;2024-01-30T13:51:29;9.60;99.90
13322;DHT22;6730;46.248;6.930;2024-01-30T13:53:55;9.60;99.90
13322;DHT22;6730;46.248;6.930;2024-01-30T13:56:21;9.30;99.90
13322;DHT22;6730;46.248;6.930;2024-01-30T13:58:48;9.10;99.90
13322;DHT22;6730;46.248;6.930;2024-01-30T14:01:15;9.00;99.90
13322;DHT22;6730;46.248;6.930;2024-01-30T14:03:41;9.00;99.90
13322;DHT22;6730;46.248;6.930;2024-01-30T14:06:07;9.00;99.90
13322;DHT22;6730;46.248;6.930;2024-01-30T14:08:32;9.10;99.90
13322;DHT22;6730;46.248;6.930;2024-01-30T14:10:58;9.10;99.90
13322;DHT22;6730;46.248;6.930;2024-01-30T14:13:23;9.40;99.90
13322;DHT22;6730;46.248;6.930;2024-01-30T14:15:51;9.90;99.90
13322;DHT22;6730;46.248;6.930;2024-01-30T14:18:17;10.20;99.90
13322;DHT22;6730;46.248;6.930;2024-01-30T14:20:43;9.80;99.90
13322;DHT22;6730;46.248;6.930;2024-01-30T14:23:08;9.40;99.90
13322;DHT22;6730;46.248;6.930;2024-01-30T14:25:34;9.40;99.90
13322;DHT22;6730;46.248;6.930;2024-01-30T14:27:59;9.80;99.90
13322;DHT22;6730;46.248;6.930;2024-01-30T14:30:25;10.10;99.90
13322;DHT22;6730;46.248;6.930;2024-01-30T14:32:51;10.10;99.90
13322;DHT22;6730;46.248;6.930;2024-01-30T14:35:17;10.00;99.90
13322;DHT22;6730;46.248;6.930;2024-01-30T14:37:43;9.70;99.90
13322;DHT22;6730;46.248;6.930;2024-01-30T14:40:08;9.70;99.90
13322;DHT22;6730;46.248;6.930;2024-01-30T14:42:34;10.20;99.90
13322;DHT22;6730;46.248;6.930;2024-01-30T14:45:02;10.70;99.90
13322;DHT22;6730;46.248;6.930;2024-01-30T14:47:28;10.30;99.90
13322;DHT22;6730;46.248;6.930;2024-01-30T14:49:53;10.40;99.90
13322;DHT22;6730;46.248;6.930;2024-01-30T14:52:19;10.20;99.90
13322;DHT22;6730;46.248;6.930;2024-01-30T14:54:45;10.10;99.90
13322;DHT22;6730;46.248;6.930;2024-01-30T14:57:10;10.00;99.90
13322;DHT22;6730;46.248;6.930;2024-01-30T14:59:36;9.80;99.90
13322;DHT22;6730;46.248;6.930;2024-01-30T15:02:02;9.60;99.90
13322;DHT22;6730;46.248;6.930;2024-01-30T15:04:28;9.70;99.90
13322;DHT22;6730;46.248;6.930;2024-01-30T15:06:56;10.00;99.90
13322;DHT22;6730;46.248;6.930;2024-01-30T15:09:22;10.10;99.90
13322;DHT22;6730;46.248;6.930;2024-01-30T15:11:48;10.20;99.90
13322;DHT22;6730;46.248;6.930;2024-01-30T15:14:15;10.10;99.90
13322;DHT22;6730;46.248;6.930;2024-01-30T15:16:42;10.00;99.90
13322;DHT22;6730;46.248;6.930;2024-01-30T15:19:08;9.80;99.90
13322;DHT22;6730;46.248;6.930;2024-01-30T15:21:34;9.60;99.90
13322;DHT22;6730;46.248;6.930;2024-01-30T15:23:59;9.40;99.90
13322;DHT22;6730;46.248;6.930;2024-01-30T15:26:25;9.30;99.90
13322;DHT22;6730;46.248;6.930;2024-01-30T15:28:51;9.10;99.90
13322;DHT22;6730;46.248;6.930;2024-01-30T15:31:17;9.00;99.90
13322;DHT22;6730;46.248;6.930;2024-01-30T15:33:43;9.00;99.90
13322;DHT22;6730;46.248;6.930;2024-01-30T15:36:09;9.50;99.90
13322;DHT22;6730;46.248;6.930;2024-01-30T15:38:36;9.70;99.90
13322;DHT22;6730;46.248;6.930;2024-01-30T15:41:01;10.20;99.90
13322;DHT22;6730;46.248;6.930;2024-01-30T15:43:27;10.70;99.90
13322;DHT22;6730;46.248;6.930;2024-01-30T15:45:53;11.10;99.90
13322;DHT22;6730;46.248;6.930;2024-01-30T15:48:22;11.40;99.90
13322;DHT22;6730;46.248;6.930;2024-01-30T15:50:47;11.50;99.90